Saint Cloud, Minnesota
Current Conditions -  °F | °C
As of 5:34 AM on Wednesday 26 Nov 2014 (Local Time) from KSTC Reporting Station
Overcast Overcast  
Wind Chill: 16°   Ceiling: 6000
Heat Index: 23°   Visibility: 9mi
Dew Point: 16°   Wind: 6mph
Humidity: 74%   Direction: 20°NNE
Pressure: 30.07"   Gusts: NA
Location:  45.55°N, 94.06°W
Report Text: KSTC 261134Z AUTO 02005KT 9SM SCT024 BKN060 OVC070 M05/M09 A3007 RMK AO2 T10501089
Loading
Personal Weather Stations






























Interactive Weather Map New forecast layout! Learn more

10-Day Weather Forecast

Advertisements
Track Severe Weather on mobile